sensor_id;sensor_type;location;lat;lon;timestamp;P1;durP1;ratioP1;P2;durP2;ratioP2
24859;SDS011;12936;52.006;4.350;2023-08-24T00:01:48;5.65;;;2.78;;
24859;SDS011;12936;52.006;4.350;2023-08-24T00:04:38;4.57;;;3.08;;
24859;SDS011;12936;52.006;4.350;2023-08-24T00:07:09;9.35;;;3.65;;
24859;SDS011;12936;52.006;4.350;2023-08-24T00:09:59;5.20;;;3.13;;
24859;SDS011;12936;52.006;4.350;2023-08-24T00:12:48;6.65;;;3.42;;
24859;SDS011;12936;52.006;4.350;2023-08-24T00:15:16;9.00;;;3.17;;
24859;SDS011;12936;52.006;4.350;2023-08-24T00:17:53;5.60;;;2.90;;
24859;SDS011;12936;52.006;4.350;2023-08-24T00:20:26;7.28;;;3.30;;
24859;SDS011;12936;52.006;4.350;2023-08-24T00:23:00;7.60;;;3.03;;
24859;SDS011;12936;52.006;4.350;2023-08-24T00:25:32;8.30;;;3.63;;
24859;SDS011;12936;52.006;4.350;2023-08-24T00:28:04;5.75;;;3.15;;
24859;SDS011;12936;52.006;4.350;2023-08-24T00:30:34;6.70;;;3.30;;
24859;SDS011;12936;52.006;4.350;2023-08-24T00:33:06;5.60;;;3.20;;
24859;SDS011;12936;52.006;4.350;2023-08-24T00:35:37;5.18;;;3.38;;
24859;SDS011;12936;52.006;4.350;2023-08-24T00:38:13;10.90;;;3.10;;
24859;SDS011;12936;52.006;4.350;2023-08-24T00:41:05;7.10;;;3.28;;
24859;SDS011;12936;52.006;4.350;2023-08-24T00:43:54;7.25;;;3.80;;
24859;SDS011;12936;52.006;4.350;2023-08-24T00:46:25;6.88;;;3.10;;
24859;SDS011;12936;52.006;4.350;2023-08-24T00:48:56;7.57;;;3.20;;
24859;SDS011;12936;52.006;4.350;2023-08-24T00:51:27;7.80;;;3.00;;
24859;SDS011;12936;52.006;4.350;2023-08-24T00:53:58;5.20;;;3.13;;
24859;SDS011;12936;52.006;4.350;2023-08-24T00:56:32;11.27;;;3.15;;
24859;SDS011;12936;52.006;4.350;2023-08-24T00:59:01;8.15;;;3.10;;
24859;SDS011;12936;52.006;4.350;2023-08-24T01:01:32;4.63;;;2.97;;
24859;SDS011;12936;52.006;4.350;2023-08-24T01:04:40;7.22;;;3.10;;
24859;SDS011;12936;52.006;4.350;2023-08-24T01:07:10;6.32;;;2.72;;
24859;SDS011;12936;52.006;4.350;2023-08-24T01:09:58;4.93;;;2.70;;
24859;SDS011;12936;52.006;4.350;2023-08-24T01:12:52;7.75;;;2.88;;
24859;SDS011;12936;52.006;4.350;2023-08-24T01:15:31;3.60;;;2.85;;
24859;SDS011;12936;52.006;4.350;2023-08-24T01:18:27;8.80;;;3.22;;
24859;SDS011;12936;52.006;4.350;2023-08-24T01:21:00;6.90;;;3.30;;
24859;SDS011;12936;52.006;4.350;2023-08-24T01:23:34;8.27;;;3.22;;
24859;SDS011;12936;52.006;4.350;2023-08-24T01:26:19;7.68;;;3.38;;
24859;SDS011;12936;52.006;4.350;2023-08-24T01:29:09;5.70;;;3.00;;
24859;SDS011;12936;52.006;4.350;2023-08-24T01:31:40;6.65;;;3.85;;
24859;SDS011;12936;52.006;4.350;2023-08-24T01:34:12;6.97;;;3.50;;
24859;SDS011;12936;52.006;4.350;2023-08-24T01:36:43;6.90;;;3.45;;
24859;SDS011;12936;52.006;4.350;2023-08-24T01:39:17;7.40;;;3.38;;
24859;SDS011;12936;52.006;4.350;2023-08-24T01:41:58;8.98;;;3.60;;
24859;SDS011;12936;52.006;4.350;2023-08-24T01:44:33;7.38;;;3.53;;
24859;SDS011;12936;52.006;4.350;2023-08-24T01:47:27;10.15;;;3.50;;
24859;SDS011;12936;52.006;4.350;2023-08-24T01:49:58;7.57;;;3.83;;
24859;SDS011;12936;52.006;4.350;2023-08-24T01:52:28;7.72;;;3.75;;
24859;SDS011;12936;52.006;4.350;2023-08-24T01:55:17;6.25;;;3.78;;
24859;SDS011;12936;52.006;4.350;2023-08-24T01:57:47;6.25;;;3.55;;
24859;SDS011;12936;52.006;4.350;2023-08-24T02:00:17;9.02;;;4.18;;
24859;SDS011;12936;52.006;4.350;2023-08-24T02:02:49;9.32;;;4.75;;
24859;SDS011;12936;52.006;4.350;2023-08-24T02:05:20;6.95;;;3.70;;
24859;SDS011;12936;52.006;4.350;2023-08-24T02:07:53;7.00;;;3.72;;
24859;SDS011;12936;52.006;4.350;2023-08-24T02:10:38;9.48;;;4.18;;
24859;SDS011;12936;52.006;4.350;2023-08-24T02:13:08;5.32;;;3.88;;
24859;SDS011;12936;52.006;4.350;2023-08-24T02:15:38;7.03;;;4.43;;
24859;SDS011;12936;52.006;4.350;2023-08-24T02:18:06;10.57;;;4.45;;
24859;SDS011;12936;52.006;4.350;2023-08-24T02:20:40;8.30;;;4.45;;
24859;SDS011;12936;52.006;4.350;2023-08-24T02:23:09;9.35;;;4.40;;
24859;SDS011;12936;52.006;4.350;2023-08-24T02:25:41;6.75;;;4.20;;
24859;SDS011;12936;52.006;4.350;2023-08-24T02:28:14;7.45;;;5.13;;
24859;SDS011;12936;52.006;4.350;2023-08-24T02:30:45;10.32;;;4.72;;
24859;SDS011;12936;52.006;4.350;2023-08-24T02:33:16;7.50;;;3.92;;
24859;SDS011;12936;52.006;4.350;2023-08-24T02:35:46;9.15;;;4.70;;
24859;SDS011;12936;52.006;4.350;2023-08-24T02:38:16;9.23;;;5.03;;
24859;SDS011;12936;52.006;4.350;2023-08-24T02:40:45;9.63;;;4.60;;
24859;SDS011;12936;52.006;4.350;2023-08-24T02:43:16;9.15;;;4.60;;
24859;SDS011;12936;52.006;4.350;2023-08-24T02:45:46;8.23;;;5.00;;
24859;SDS011;12936;52.006;4.350;2023-08-24T02:48:17;8.20;;;5.03;;
24859;SDS011;12936;52.006;4.350;2023-08-24T02:50:46;8.30;;;4.70;;
24859;SDS011;12936;52.006;4.350;2023-08-24T02:53:37;9.10;;;5.07;;
24859;SDS011;12936;52.006;4.350;2023-08-24T02:56:19;7.97;;;4.72;;
24859;SDS011;12936;52.006;4.350;2023-08-24T02:59:29;6.93;;;4.60;;
24859;SDS011;12936;52.006;4.350;2023-08-24T03:01:58;9.75;;;5.30;;
24859;SDS011;12936;52.006;4.350;2023-08-24T03:04:28;7.53;;;4.93;;
24859;SDS011;12936;52.006;4.350;2023-08-24T03:06:58;7.65;;;4.55;;
24859;SDS011;12936;52.006;4.350;2023-08-24T03:09:28;7.65;;;5.05;;
24859;SDS011;12936;52.006;4.350;2023-08-24T03:11:56;8.18;;;4.68;;
24859;SDS011;12936;52.006;4.350;2023-08-24T03:14:25;10.70;;;4.70;;
24859;SDS011;12936;52.006;4.350;2023-08-24T03:16:58;8.68;;;5.00;;
24859;SDS011;12936;52.006;4.350;2023-08-24T03:19:26;8.93;;;5.45;;
24859;SDS011;12936;52.006;4.350;2023-08-24T03:22:01;7.18;;;5.32;;
24859;SDS011;12936;52.006;4.350;2023-08-24T03:24:33;9.10;;;4.82;;
24859;SDS011;12936;52.006;4.350;2023-08-24T03:27:51;7.20;;;4.75;;
24859;SDS011;12936;52.006;4.350;2023-08-24T03:30:20;8.15;;;5.18;;
24859;SDS011;12936;52.006;4.350;2023-08-24T03:32:56;9.65;;;5.05;;
24859;SDS011;12936;52.006;4.350;2023-08-24T03:35:40;8.18;;;5.35;;
24859;SDS011;12936;52.006;4.350;2023-08-24T03:38:10;7.30;;;5.60;;
24859;SDS011;12936;52.006;4.350;2023-08-24T03:40:59;9.00;;;5.38;;
24859;SDS011;12936;52.006;4.350;2023-08-24T03:43:31;10.38;;;5.80;;
24859;SDS011;12936;52.006;4.350;2023-08-24T03:46:03;9.98;;;5.80;;
24859;SDS011;12936;52.006;4.350;2023-08-24T03:48:34;8.40;;;5.78;;
24859;SDS011;12936;52.006;4.350;2023-08-24T03:51:03;9.23;;;5.82;;
24859;SDS011;12936;52.006;4.350;2023-08-24T03:53:35;10.15;;;5.80;;
24859;SDS011;12936;52.006;4.350;2023-08-24T03:56:05;11.32;;;5.80;;
24859;SDS011;12936;52.006;4.350;2023-08-24T03:58:34;7.97;;;5.97;;
24859;SDS011;12936;52.006;4.350;2023-08-24T04:01:04;11.63;;;5.53;;
24859;SDS011;12936;52.006;4.350;2023-08-24T04:03:43;7.90;;;6.43;;
24859;SDS011;12936;52.006;4.350;2023-08-24T04:06:17;7.35;;;6.07;;
24859;SDS011;12936;52.006;4.350;2023-08-24T04:09:10;8.13;;;5.97;;
24859;SDS011;12936;52.006;4.350;2023-08-24T04:11:40;11.95;;;6.45;;
24859;SDS011;12936;52.006;4.350;2023-08-24T04:14:28;8.88;;;6.15;;
24859;SDS011;12936;52.006;4.350;2023-08-24T04:16:57;8.90;;;6.38;;
24859;SDS011;12936;52.006;4.350;2023-08-24T04:19:33;9.95;;;6.50;;
24859;SDS011;12936;52.006;4.350;2023-08-24T04:22:09;8.30;;;6.32;;
24859;SDS011;12936;52.006;4.350;2023-08-24T04:25:18;10.48;;;6.68;;
24859;SDS011;12936;52.006;4.350;2023-08-24T04:27:48;9.20;;;6.25;;
24859;SDS011;12936;52.006;4.350;2023-08-24T04:30:38;12.45;;;6.95;;
24859;SDS011;12936;52.006;4.350;2023-08-24T04:33:18;8.52;;;6.20;;
24859;SDS011;12936;52.006;4.350;2023-08-24T04:36:09;10.00;;;6.90;;
24859;SDS011;12936;52.006;4.350;2023-08-24T04:38:38;9.38;;;6.65;;
24859;SDS011;12936;52.006;4.350;2023-08-24T04:41:07;9.52;;;6.65;;
24859;SDS011;12936;52.006;4.350;2023-08-24T04:43:37;12.23;;;7.68;;
24859;SDS011;12936;52.006;4.350;2023-08-24T04:46:05;10.25;;;6.68;;
24859;SDS011;12936;52.006;4.350;2023-08-24T04:48:33;9.50;;;7.07;;
24859;SDS011;12936;52.006;4.350;2023-08-24T04:51:02;13.23;;;7.80;;
24859;SDS011;12936;52.006;4.350;2023-08-24T04:53:31;8.50;;;6.93;;
24859;SDS011;12936;52.006;4.350;2023-08-24T04:56:00;10.20;;;7.40;;
24859;SDS011;12936;52.006;4.350;2023-08-24T04:58:29;9.40;;;6.90;;
24859;SDS011;12936;52.006;4.350;2023-08-24T05:00:58;14.57;;;7.20;;
24859;SDS011;12936;52.006;4.350;2023-08-24T05:03:26;10.77;;;7.35;;
24859;SDS011;12936;52.006;4.350;2023-08-24T05:05:54;10.65;;;7.13;;
24859;SDS011;12936;52.006;4.350;2023-08-24T05:08:22;13.65;;;7.30;;
24859;SDS011;12936;52.006;4.350;2023-08-24T05:10:51;10.98;;;6.97;;
24859;SDS011;12936;52.006;4.350;2023-08-24T05:13:20;9.85;;;7.32;;
24859;SDS011;12936;52.006;4.350;2023-08-24T05:15:49;11.80;;;7.63;;
24859;SDS011;12936;52.006;4.350;2023-08-24T05:18:17;11.70;;;7.30;;
24859;SDS011;12936;52.006;4.350;2023-08-24T05:20:45;12.18;;;8.25;;
24859;SDS011;12936;52.006;4.350;2023-08-24T05:23:13;11.98;;;7.50;;
24859;SDS011;12936;52.006;4.350;2023-08-24T05:25:41;12.95;;;7.38;;
24859;SDS011;12936;52.006;4.350;2023-08-24T05:28:12;10.13;;;7.15;;
24859;SDS011;12936;52.006;4.350;2023-08-24T05:30:41;10.70;;;6.78;;
24859;SDS011;12936;52.006;4.350;2023-08-24T05:33:11;15.77;;;7.75;;
24859;SDS011;12936;52.006;4.350;2023-08-24T05:35:41;10.75;;;7.72;;
24859;SDS011;12936;52.006;4.350;2023-08-24T05:38:12;13.38;;;8.00;;
24859;SDS011;12936;52.006;4.350;2023-08-24T05:40:41;12.82;;;8.13;;
24859;SDS011;12936;52.006;4.350;2023-08-24T05:43:13;12.15;;;8.13;;
24859;SDS011;12936;52.006;4.350;2023-08-24T05:45:41;10.93;;;7.93;;
24859;SDS011;12936;52.006;4.350;2023-08-24T05:48:11;12.98;;;7.80;;
24859;SDS011;12936;52.006;4.350;2023-08-24T05:50:42;11.02;;;7.32;;
24859;SDS011;12936;52.006;4.350;2023-08-24T05:53:11;11.80;;;8.32;;
24859;SDS011;12936;52.006;4.350;2023-08-24T05:55:39;10.77;;;7.78;;
24859;SDS011;12936;52.006;4.350;2023-08-24T05:58:07;12.23;;;8.32;;
24859;SDS011;12936;52.006;4.350;2023-08-24T06:00:37;15.15;;;8.80;;
24859;SDS011;12936;52.006;4.350;2023-08-24T06:03:05;14.32;;;8.25;;
24859;SDS011;12936;52.006;4.350;2023-08-24T06:05:33;13.88;;;8.23;;
24859;SDS011;12936;52.006;4.350;2023-08-24T06:08:02;10.75;;;8.15;;
24859;SDS011;12936;52.006;4.350;2023-08-24T06:10:31;14.60;;;8.80;;
24859;SDS011;12936;52.006;4.350;2023-08-24T06:13:00;13.52;;;9.00;;
24859;SDS011;12936;52.006;4.350;2023-08-24T06:15:28;12.77;;;8.88;;
24859;SDS011;12936;52.006;4.350;2023-08-24T06:17:58;11.48;;;8.80;;
24859;SDS011;12936;52.006;4.350;2023-08-24T06:20:27;16.70;;;8.93;;
24859;SDS011;12936;52.006;4.350;2023-08-24T06:22:55;15.18;;;8.75;;
24859;SDS011;12936;52.006;4.350;2023-08-24T06:25:28;16.52;;;9.73;;
24859;SDS011;12936;52.006;4.350;2023-08-24T06:27:57;13.60;;;10.23;;
24859;SDS011;12936;52.006;4.350;2023-08-24T06:30:27;14.73;;;9.48;;
24859;SDS011;12936;52.006;4.350;2023-08-24T06:33:05;19.95;;;10.27;;
24859;SDS011;12936;52.006;4.350;2023-08-24T06:35:40;14.13;;;10.25;;
24859;SDS011;12936;52.006;4.350;2023-08-24T06:38:09;14.43;;;10.13;;
24859;SDS011;12936;52.006;4.350;2023-08-24T06:40:38;13.98;;;10.60;;
24859;SDS011;12936;52.006;4.350;2023-08-24T06:43:09;18.38;;;10.75;;
24859;SDS011;12936;52.006;4.350;2023-08-24T06:45:38;14.60;;;9.73;;
24859;SDS011;12936;52.006;4.350;2023-08-24T06:48:14;18.83;;;10.32;;
24859;SDS011;12936;52.006;4.350;2023-08-24T06:50:57;17.23;;;10.55;;
24859;SDS011;12936;52.006;4.350;2023-08-24T06:53:25;15.20;;;11.00;;
24859;SDS011;12936;52.006;4.350;2023-08-24T06:55:56;19.55;;;11.88;;
24859;SDS011;12936;52.006;4.350;2023-08-24T06:58:25;16.15;;;12.05;;
24859;SDS011;12936;52.006;4.350;2023-08-24T07:00:55;13.50;;;10.90;;
24859;SDS011;12936;52.006;4.350;2023-08-24T07:03:32;20.20;;;11.43;;
24859;SDS011;12936;52.006;4.350;2023-08-24T07:06:01;16.40;;;12.38;;
24859;SDS011;12936;52.006;4.350;2023-08-24T07:08:30;16.90;;;11.27;;
24859;SDS011;12936;52.006;4.350;2023-08-24T07:11:03;18.40;;;12.27;;
24859;SDS011;12936;52.006;4.350;2023-08-24T07:13:31;17.85;;;11.90;;
24859;SDS011;12936;52.006;4.350;2023-08-24T07:16:01;15.43;;;12.18;;
24859;SDS011;12936;52.006;4.350;2023-08-24T07:18:30;15.90;;;11.63;;
24859;SDS011;12936;52.006;4.350;2023-08-24T07:21:00;17.25;;;11.85;;
24859;SDS011;12936;52.006;4.350;2023-08-24T07:23:28;18.98;;;11.40;;
24859;SDS011;12936;52.006;4.350;2023-08-24T07:25:56;15.93;;;10.75;;
24859;SDS011;12936;52.006;4.350;2023-08-24T07:28:24;19.40;;;12.43;;
24859;SDS011;12936;52.006;4.350;2023-08-24T07:30:52;17.45;;;12.00;;
24859;SDS011;12936;52.006;4.350;2023-08-24T07:33:25;17.42;;;12.00;;
24859;SDS011;12936;52.006;4.350;2023-08-24T07:35:56;17.08;;;11.48;;
24859;SDS011;12936;52.006;4.350;2023-08-24T07:38:27;19.10;;;11.70;;
24859;SDS011;12936;52.006;4.350;2023-08-24T07:40:58;17.80;;;12.10;;
24859;SDS011;12936;52.006;4.350;2023-08-24T07:43:26;22.70;;;11.73;;
24859;SDS011;12936;52.006;4.350;2023-08-24T07:45:57;18.35;;;11.60;;
24859;SDS011;12936;52.006;4.350;2023-08-24T07:48:26;15.77;;;11.10;;
24859;SDS011;12936;52.006;4.350;2023-08-24T07:50:56;20.33;;;11.68;;
24859;SDS011;12936;52.006;4.350;2023-08-24T07:53:24;21.98;;;12.43;;
24859;SDS011;12936;52.006;4.350;2023-08-24T07:55:52;14.65;;;10.82;;
24859;SDS011;12936;52.006;4.350;2023-08-24T07:58:23;19.00;;;10.90;;
24859;SDS011;12936;52.006;4.350;2023-08-24T08:00:52;16.17;;;10.98;;
24859;SDS011;12936;52.006;4.350;2023-08-24T08:03:21;16.65;;;10.57;;
24859;SDS011;12936;52.006;4.350;2023-08-24T08:05:49;16.67;;;10.82;;
24859;SDS011;12936;52.006;4.350;2023-08-24T08:08:19;15.35;;;10.40;;
24859;SDS011;12936;52.006;4.350;2023-08-24T08:10:47;20.85;;;10.75;;
24859;SDS011;12936;52.006;4.350;2023-08-24T08:13:24;18.52;;;10.32;;
24859;SDS011;12936;52.006;4.350;2023-08-24T08:15:52;19.83;;;11.15;;
24859;SDS011;12936;52.006;4.350;2023-08-24T08:18:21;19.83;;;10.50;;
24859;SDS011;12936;52.006;4.350;2023-08-24T08:20:50;18.00;;;9.90;;
24859;SDS011;12936;52.006;4.350;2023-08-24T08:23:22;28.63;;;11.82;;
24859;SDS011;12936;52.006;4.350;2023-08-24T08:25:52;22.48;;;10.50;;
24859;SDS011;12936;52.006;4.350;2023-08-24T08:28:20;21.27;;;10.80;;
24859;SDS011;12936;52.006;4.350;2023-08-24T08:31:11;22.83;;;10.82;;
24859;SDS011;12936;52.006;4.350;2023-08-24T08:33:39;17.02;;;11.27;;
24859;SDS011;12936;52.006;4.350;2023-08-24T08:36:07;16.00;;;10.52;;
24859;SDS011;12936;52.006;4.350;2023-08-24T08:38:37;24.83;;;11.82;;
24859;SDS011;12936;52.006;4.350;2023-08-24T08:41:05;15.27;;;10.52;;
24859;SDS011;12936;52.006;4.350;2023-08-24T08:43:35;47.63;;;12.70;;
24859;SDS011;12936;52.006;4.350;2023-08-24T08:46:06;20.88;;;10.93;;
24859;SDS011;12936;52.006;4.350;2023-08-24T08:48:34;31.88;;;12.23;;
24859;SDS011;12936;52.006;4.350;2023-08-24T08:51:06;26.58;;;11.43;;
24859;SDS011;12936;52.006;4.350;2023-08-24T08:53:46;28.00;;;11.05;;
24859;SDS011;12936;52.006;4.350;2023-08-24T08:56:14;21.70;;;10.18;;
24859;SDS011;12936;52.006;4.350;2023-08-24T08:58:43;36.47;;;12.70;;
24859;SDS011;12936;52.006;4.350;2023-08-24T09:01:18;31.65;;;11.82;;
24859;SDS011;12936;52.006;4.350;2023-08-24T09:03:47;29.77;;;12.02;;
24859;SDS011;12936;52.006;4.350;2023-08-24T09:06:25;18.20;;;11.48;;
24859;SDS011;12936;52.006;4.350;2023-08-24T09:08:56;21.88;;;10.73;;
24859;SDS011;12936;52.006;4.350;2023-08-24T09:11:28;20.73;;;10.50;;
24859;SDS011;12936;52.006;4.350;2023-08-24T09:13:56;17.05;;;10.20;;
24859;SDS011;12936;52.006;4.350;2023-08-24T09:16:29;15.43;;;10.13;;
24859;SDS011;12936;52.006;4.350;2023-08-24T09:19:00;14.38;;;10.05;;
24859;SDS011;12936;52.006;4.350;2023-08-24T09:21:36;20.08;;;10.50;;
24859;SDS011;12936;52.006;4.350;2023-08-24T09:24:06;14.05;;;9.90;;
24859;SDS011;12936;52.006;4.350;2023-08-24T09:26:37;13.15;;;10.55;;
24859;SDS011;12936;52.006;4.350;2023-08-24T09:29:12;16.95;;;9.50;;
24859;SDS011;12936;52.006;4.350;2023-08-24T09:31:42;16.20;;;9.52;;
24859;SDS011;12936;52.006;4.350;2023-08-24T09:34:11;18.00;;;10.48;;
24859;SDS011;12936;52.006;4.350;2023-08-24T09:36:41;15.23;;;10.30;;
24859;SDS011;12936;52.006;4.350;2023-08-24T09:39:17;20.58;;;9.75;;
24859;SDS011;12936;52.006;4.350;2023-08-24T09:41:46;19.10;;;11.02;;
24859;SDS011;12936;52.006;4.350;2023-08-24T09:44:16;15.73;;;10.18;;
24859;SDS011;12936;52.006;4.350;2023-08-24T09:46:45;16.58;;;10.13;;
24859;SDS011;12936;52.006;4.350;2023-08-24T09:49:13;17.27;;;10.45;;
24859;SDS011;12936;52.006;4.350;2023-08-24T09:51:43;18.20;;;10.15;;
24859;SDS011;12936;52.006;4.350;2023-08-24T09:54:11;45.63;;;12.93;;
24859;SDS011;12936;52.006;4.350;2023-08-24T09:56:43;35.65;;;12.05;;
24859;SDS011;12936;52.006;4.350;2023-08-24T09:59:12;35.63;;;11.75;;
24859;SDS011;12936;52.006;4.350;2023-08-24T10:01:45;37.05;;;12.52;;
24859;SDS011;12936;52.006;4.350;2023-08-24T10:04:15;42.92;;;11.65;;
24859;SDS011;12936;52.006;4.350;2023-08-24T10:06:51;19.83;;;10.35;;
24859;SDS011;12936;52.006;4.350;2023-08-24T10:09:25;21.10;;;10.40;;
24859;SDS011;12936;52.006;4.350;2023-08-24T10:12:02;21.55;;;10.00;;
24859;SDS011;12936;52.006;4.350;2023-08-24T10:14:36;17.08;;;10.98;;
24859;SDS011;12936;52.006;4.350;2023-08-24T10:17:10;24.15;;;10.60;;
24859;SDS011;12936;52.006;4.350;2023-08-24T10:19:41;17.70;;;10.27;;
24859;SDS011;12936;52.006;4.350;2023-08-24T10:22:09;21.77;;;10.57;;
24859;SDS011;12936;52.006;4.350;2023-08-24T10:24:39;15.57;;;10.52;;
24859;SDS011;12936;52.006;4.350;2023-08-24T10:27:11;21.27;;;10.50;;
24859;SDS011;12936;52.006;4.350;2023-08-24T10:29:40;15.80;;;10.00;;
24859;SDS011;12936;52.006;4.350;2023-08-24T10:32:08;19.70;;;10.15;;
24859;SDS011;12936;52.006;4.350;2023-08-24T10:34:37;14.32;;;9.43;;
24859;SDS011;12936;52.006;4.350;2023-08-24T10:37:08;20.30;;;9.45;;
24859;SDS011;12936;52.006;4.350;2023-08-24T10:39:38;18.45;;;8.70;;
24859;SDS011;12936;52.006;4.350;2023-08-24T10:42:15;17.30;;;8.68;;
24859;SDS011;12936;52.006;4.350;2023-08-24T10:44:44;18.38;;;9.25;;
24859;SDS011;12936;52.006;4.350;2023-08-24T10:47:14;17.67;;;9.23;;
24859;SDS011;12936;52.006;4.350;2023-08-24T10:49:43;13.40;;;8.48;;
24859;SDS011;12936;52.006;4.350;2023-08-24T10:52:19;17.75;;;9.45;;
24859;SDS011;12936;52.006;4.350;2023-08-24T10:54:49;18.80;;;10.32;;
24859;SDS011;12936;52.006;4.350;2023-08-24T10:57:21;16.85;;;9.55;;
24859;SDS011;12936;52.006;4.350;2023-08-24T10:59:59;26.25;;;9.68;;
24859;SDS011;12936;52.006;4.350;2023-08-24T11:02:40;15.10;;;9.35;;
24859;SDS011;12936;52.006;4.350;2023-08-24T11:05:17;14.85;;;8.93;;
24859;SDS011;12936;52.006;4.350;2023-08-24T11:07:48;15.65;;;9.88;;
24859;SDS011;12936;52.006;4.350;2023-08-24T11:10:17;17.45;;;10.20;;
24859;SDS011;12936;52.006;4.350;2023-08-24T11:13:06;14.52;;;9.55;;
24859;SDS011;12936;52.006;4.350;2023-08-24T11:15:37;17.27;;;9.82;;
24859;SDS011;12936;52.006;4.350;2023-08-24T11:18:20;14.20;;;9.32;;
24859;SDS011;12936;52.006;4.350;2023-08-24T11:20:51;19.10;;;10.18;;
24859;SDS011;12936;52.006;4.350;2023-08-24T11:23:21;17.05;;;8.88;;
24859;SDS011;12936;52.006;4.350;2023-08-24T11:25:51;17.77;;;9.35;;
24859;SDS011;12936;52.006;4.350;2023-08-24T11:28:27;17.02;;;9.45;;
24859;SDS011;12936;52.006;4.350;2023-08-24T11:30:57;24.73;;;10.00;;
24859;SDS011;12936;52.006;4.350;2023-08-24T11:33:26;16.27;;;8.15;;
24859;SDS011;12936;52.006;4.350;2023-08-24T11:35:57;16.85;;;9.60;;
24859;SDS011;12936;52.006;4.350;2023-08-24T11:38:34;15.00;;;10.55;;
24859;SDS011;12936;52.006;4.350;2023-08-24T11:41:10;16.25;;;10.38;;
24859;SDS011;12936;52.006;4.350;2023-08-24T11:43:41;17.67;;;10.38;;
24859;SDS011;12936;52.006;4.350;2023-08-24T11:46:09;15.90;;;10.60;;
24859;SDS011;12936;52.006;4.350;2023-08-24T11:48:38;20.67;;;11.90;;
24859;SDS011;12936;52.006;4.350;2023-08-24T11:51:08;18.88;;;11.85;;
24859;SDS011;12936;52.006;4.350;2023-08-24T11:53:36;17.90;;;11.82;;
24859;SDS011;12936;52.006;4.350;2023-08-24T11:56:05;19.13;;;12.38;;
24859;SDS011;12936;52.006;4.350;2023-08-24T11:58:37;23.92;;;12.50;;
24859;SDS011;12936;52.006;4.350;2023-08-24T12:01:07;24.70;;;12.25;;
24859;SDS011;12936;52.006;4.350;2023-08-24T12:03:36;19.00;;;12.43;;
24859;SDS011;12936;52.006;4.350;2023-08-24T12:06:09;17.70;;;12.70;;
24859;SDS011;12936;52.006;4.350;2023-08-24T12:08:39;15.65;;;11.18;;
24859;SDS011;12936;52.006;4.350;2023-08-24T12:11:12;19.20;;;11.98;;
24859;SDS011;12936;52.006;4.350;2023-08-24T12:13:44;15.18;;;12.05;;
24859;SDS011;12936;52.006;4.350;2023-08-24T12:16:16;18.55;;;12.93;;
24859;SDS011;12936;52.006;4.350;2023-08-24T12:18:48;16.92;;;11.63;;
24859;SDS011;12936;52.006;4.350;2023-08-24T12:21:19;18.00;;;11.77;;
24859;SDS011;12936;52.006;4.350;2023-08-24T12:23:56;16.27;;;12.60;;
24859;SDS011;12936;52.006;4.350;2023-08-24T12:26:26;18.42;;;12.85;;
24859;SDS011;12936;52.006;4.350;2023-08-24T12:28:55;22.60;;;11.85;;
24859;SDS011;12936;52.006;4.350;2023-08-24T12:31:30;16.15;;;11.57;;
24859;SDS011;12936;52.006;4.350;2023-08-24T12:34:03;19.63;;;12.55;;
24859;SDS011;12936;52.006;4.350;2023-08-24T12:36:31;19.80;;;12.10;;
24859;SDS011;12936;52.006;4.350;2023-08-24T12:39:03;22.15;;;12.38;;
24859;SDS011;12936;52.006;4.350;2023-08-24T12:41:32;15.23;;;12.38;;
24859;SDS011;12936;52.006;4.350;2023-08-24T12:44:01;16.90;;;12.05;;
24859;SDS011;12936;52.006;4.350;2023-08-24T12:46:33;22.77;;;12.35;;
24859;SDS011;12936;52.006;4.350;2023-08-24T12:49:02;21.30;;;12.20;;
24859;SDS011;12936;52.006;4.350;2023-08-24T12:51:31;19.23;;;12.98;;
24859;SDS011;12936;52.006;4.350;2023-08-24T12:54:00;21.55;;;12.43;;
24859;SDS011;12936;52.006;4.350;2023-08-24T12:56:28;17.80;;;12.52;;
24859;SDS011;12936;52.006;4.350;2023-08-24T12:58:56;19.23;;;13.13;;
24859;SDS011;12936;52.006;4.350;2023-08-24T13:01:24;20.10;;;13.32;;
24859;SDS011;12936;52.006;4.350;2023-08-24T13:03:54;18.67;;;12.38;;
24859;SDS011;12936;52.006;4.350;2023-08-24T13:06:23;16.60;;;13.25;;
24859;SDS011;12936;52.006;4.350;2023-08-24T13:08:52;19.50;;;13.43;;
24859;SDS011;12936;52.006;4.350;2023-08-24T13:11:20;21.05;;;14.10;;
24859;SDS011;12936;52.006;4.350;2023-08-24T13:13:50;20.35;;;14.60;;
24859;SDS011;12936;52.006;4.350;2023-08-24T13:16:18;17.95;;;14.25;;
24859;SDS011;12936;52.006;4.350;2023-08-24T13:18:46;19.05;;;14.18;;
24859;SDS011;12936;52.006;4.350;2023-08-24T13:21:16;24.50;;;14.68;;
24859;SDS011;12936;52.006;4.350;2023-08-24T13:23:46;20.98;;;13.80;;
24859;SDS011;12936;52.006;4.350;2023-08-24T13:26:17;21.38;;;14.88;;
24859;SDS011;12936;52.006;4.350;2023-08-24T13:28:46;21.88;;;15.15;;
24859;SDS011;12936;52.006;4.350;2023-08-24T13:31:15;19.65;;;13.98;;
24859;SDS011;12936;52.006;4.350;2023-08-24T13:33:43;18.55;;;13.32;;
24859;SDS011;12936;52.006;4.350;2023-08-24T13:36:13;15.10;;;11.35;;
24859;SDS011;12936;52.006;4.350;2023-08-24T13:38:42;21.08;;;12.75;;
24859;SDS011;12936;52.006;4.350;2023-08-24T13:41:11;14.07;;;10.07;;
24859;SDS011;12936;52.006;4.350;2023-08-24T13:43:39;12.77;;;8.85;;
24859;SDS011;12936;52.006;4.350;2023-08-24T13:46:08;14.63;;;8.82;;
24859;SDS011;12936;52.006;4.350;2023-08-24T13:48:36;14.20;;;8.90;;
24859;SDS011;12936;52.006;4.350;2023-08-24T13:51:05;12.05;;;7.70;;
24859;SDS011;12936;52.006;4.350;2023-08-24T13:53:34;11.48;;;8.40;;
24859;SDS011;12936;52.006;4.350;2023-08-24T13:56:04;9.18;;;7.25;;
24859;SDS011;12936;52.006;4.350;2023-08-24T13:58:32;10.25;;;7.25;;
24859;SDS011;12936;52.006;4.350;2023-08-24T14:01:01;12.10;;;6.97;;
24859;SDS011;12936;52.006;4.350;2023-08-24T14:03:30;12.10;;;6.80;;
24859;SDS011;12936;52.006;4.350;2023-08-24T14:05:58;10.18;;;6.40;;
24859;SDS011;12936;52.006;4.350;2023-08-24T14:08:27;10.55;;;6.40;;
24859;SDS011;12936;52.006;4.350;2023-08-24T14:10:55;13.93;;;7.20;;
24859;SDS011;12936;52.006;4.350;2023-08-24T14:13:25;12.77;;;7.60;;
24859;SDS011;12936;52.006;4.350;2023-08-24T14:15:53;10.70;;;7.45;;
24859;SDS011;12936;52.006;4.350;2023-08-24T14:18:22;11.80;;;7.70;;
24859;SDS011;12936;52.006;4.350;2023-08-24T14:20:51;9.93;;;7.10;;
24859;SDS011;12936;52.006;4.350;2023-08-24T14:23:20;9.40;;;7.05;;
24859;SDS011;12936;52.006;4.350;2023-08-24T14:26:11;12.40;;;6.97;;
24859;SDS011;12936;52.006;4.350;2023-08-24T14:28:50;12.27;;;7.32;;
24859;SDS011;12936;52.006;4.350;2023-08-24T14:31:21;14.23;;;9.82;;
24859;SDS011;12936;52.006;4.350;2023-08-24T14:33:52;18.70;;;9.93;;
24859;SDS011;12936;52.006;4.350;2023-08-24T14:36:21;14.50;;;9.80;;
24859;SDS011;12936;52.006;4.350;2023-08-24T14:38:50;16.67;;;10.85;;
24859;SDS011;12936;52.006;4.350;2023-08-24T14:41:20;15.68;;;11.25;;
24859;SDS011;12936;52.006;4.350;2023-08-24T14:43:50;13.60;;;10.20;;
24859;SDS011;12936;52.006;4.350;2023-08-24T14:46:18;14.93;;;10.55;;
24859;SDS011;12936;52.006;4.350;2023-08-24T14:48:46;12.77;;;9.98;;
24859;SDS011;12936;52.006;4.350;2023-08-24T14:51:14;17.35;;;10.82;;
24859;SDS011;12936;52.006;4.350;2023-08-24T14:53:43;16.30;;;9.52;;
24859;SDS011;12936;52.006;4.350;2023-08-24T14:56:11;12.68;;;8.85;;
24859;SDS011;12936;52.006;4.350;2023-08-24T14:58:41;17.73;;;9.88;;
24859;SDS011;12936;52.006;4.350;2023-08-24T15:01:14;15.13;;;10.95;;
24859;SDS011;12936;52.006;4.350;2023-08-24T15:03:52;18.00;;;9.70;;